createdAt,value
2022-08-02T00:00:00.193Z,2.27
2022-08-02T00:05:05.098Z,2.00
2022-08-02T00:10:10.129Z,2.40
2022-08-02T00:15:15.944Z,2.03
2022-08-02T00:20:20.812Z,2.20
2022-08-02T00:25:24.008Z,2.30
2022-08-02T00:30:27.006Z,2.20
2022-08-02T00:35:31.368Z,2.10
2022-08-02T00:40:34.555Z,2.30
2022-08-02T00:46:02.692Z,2.20
2022-08-02T00:51:04.484Z,2.20
2022-08-02T00:56:07.639Z,2.20
2022-08-02T01:01:10.693Z,2.10
2022-08-02T01:06:15.167Z,2.30
2022-08-02T01:11:18.167Z,2.20
2022-08-02T01:16:27.452Z,2.10
2022-08-02T01:21:46.649Z,2.50
2022-08-02T01:26:53.848Z,2.03
2022-08-02T01:32:05.349Z,2.40
2022-08-02T01:37:12.393Z,2.10
2022-08-02T01:42:17.247Z,2.47
2022-08-02T01:47:25.586Z,2.20
2022-08-02T01:52:31.985Z,2.60
2022-08-02T01:57:41.963Z,2.57
2022-08-02T02:02:49.110Z,2.23
2022-08-02T02:07:56.387Z,2.10
2022-08-02T02:13:03.736Z,2.30
2022-08-02T02:18:12.986Z,2.40
2022-08-02T02:23:17.431Z,2.17
2022-08-02T02:28:31.118Z,2.77
2022-08-02T02:33:39.544Z,2.60
2022-08-02T02:38:44.223Z,2.23
2022-08-02T02:43:48.553Z,2.47
2022-08-02T02:48:53.941Z,2.53
2022-08-02T02:54:32.083Z,2.60
2022-08-02T02:59:22.575Z,2.43
2022-08-02T03:04:36.121Z,2.50
2022-08-02T03:09:54.155Z,2.40
2022-08-02T03:14:59.697Z,2.53
2022-08-02T03:20:05.268Z,2.30
2022-08-02T03:25:09.622Z,2.10
2022-08-02T03:30:14.770Z,2.47
2022-08-02T03:35:24.173Z,2.60
2022-08-02T03:40:29.501Z,2.50
2022-08-02T03:45:32.900Z,2.50
2022-08-02T03:50:38.692Z,2.67
2022-08-02T03:55:41.959Z,3.00
2022-08-02T04:00:45.121Z,3.77
2022-08-02T04:06:03.585Z,4.00
2022-08-02T04:11:25.447Z,5.03
2022-08-02T04:16:40.014Z,3.70
2022-08-02T04:21:51.257Z,3.83
2022-08-02T04:26:57.832Z,3.47
2022-08-02T04:32:06.043Z,3.10
2022-08-02T04:37:10.473Z,3.60
2022-08-02T04:42:21.927Z,3.40
2022-08-02T04:47:54.257Z,4.40
2022-08-02T04:52:49.717Z,3.60
2022-08-02T04:57:58.795Z,3.73
2022-08-02T05:03:02.559Z,3.60
2022-08-02T05:08:07.111Z,3.10
2022-08-02T05:13:10.100Z,3.50
2022-08-02T05:18:13.035Z,3.70
2022-08-02T05:23:17.654Z,3.53
2022-08-02T05:28:20.655Z,3.30
2022-08-02T05:33:23.666Z,3.80
2022-08-02T05:38:31.127Z,3.00
2022-08-02T05:43:34.948Z,3.23
2022-08-02T05:48:38.847Z,3.77
2022-08-02T05:53:50.929Z,3.50
2022-08-02T05:58:57.994Z,3.47
2022-08-02T06:04:02.005Z,4.43
2022-08-02T06:09:11.007Z,3.60
2022-08-02T06:14:14.673Z,4.13
2022-08-02T06:19:19.814Z,3.80
2022-08-02T06:24:25.913Z,3.40
2022-08-02T06:29:35.656Z,3.43
2022-08-02T06:34:41.461Z,4.03
2022-08-02T06:39:50.106Z,3.93
2022-08-02T06:44:57.461Z,4.27
2022-08-02T06:50:01.271Z,4.13
2022-08-02T06:55:07.016Z,3.80
2022-08-02T07:00:11.377Z,3.70
2022-08-02T07:05:14.452Z,5.40
2022-08-02T07:10:18.967Z,4.50
2022-08-02T07:15:22.083Z,4.03
2022-08-02T07:20:25.293Z,3.70
2022-08-02T07:26:02.308Z,3.67
2022-08-02T07:30:52.868Z,4.43
2022-08-02T07:35:57.446Z,4.25
2022-08-02T07:41:01.817Z,4.05
2022-08-02T07:46:04.898Z,3.53
2022-08-02T07:51:07.878Z,3.35
2022-08-02T07:56:12.278Z,3.60
2022-08-02T08:01:15.334Z,3.00
2022-08-02T08:06:18.516Z,3.25
2022-08-02T08:11:22.881Z,4.05
2022-08-02T08:16:26.283Z,3.53
2022-08-02T08:21:29.663Z,3.50
2022-08-02T08:26:34.095Z,3.20
2022-08-02T08:31:37.967Z,3.00
2022-08-02T08:36:41.133Z,3.53
2022-08-02T08:41:45.563Z,3.90
2022-08-02T08:46:50.742Z,3.00
2022-08-02T08:51:56.975Z,3.50
2022-08-02T08:57:05.548Z,3.13
2022-08-02T09:02:19.515Z,3.22
2022-08-02T09:07:23.618Z,3.03
2022-08-02T09:12:28.008Z,3.33
2022-08-02T09:17:31.018Z,3.05
2022-08-02T09:22:34.546Z,3.25
2022-08-02T09:27:38.979Z,3.20
2022-08-02T09:32:46.584Z,3.15
2022-08-02T09:37:49.830Z,3.30
2022-08-02T09:43:00.580Z,4.40
2022-08-02T09:48:04.244Z,3.65
2022-08-02T09:53:12.201Z,3.63
2022-08-02T09:58:20.432Z,3.95
2022-08-02T10:03:25.273Z,3.97
2022-08-02T10:08:39.632Z,3.40
2022-08-02T10:13:44.548Z,3.20
2022-08-02T10:18:47.590Z,3.67
2022-08-02T10:23:51.499Z,3.20
2022-08-02T10:28:56.137Z,3.10
2022-08-02T10:34:02.465Z,3.22
2022-08-02T10:39:06.352Z,3.75
2022-08-02T10:44:24.475Z,3.33
2022-08-02T10:49:39.719Z,2.95
2022-08-02T10:54:45.641Z,2.78
2022-08-02T10:59:52.322Z,2.70
2022-08-02T11:05:07.979Z,3.30
2022-08-02T11:10:37.524Z,2.90
2022-08-02T11:15:54.164Z,2.75
2022-08-02T11:21:24.773Z,2.72
2022-08-02T11:26:44.587Z,2.55
2022-08-02T11:31:49.258Z,3.08
2022-08-02T11:36:54.636Z,2.53
2022-08-02T11:41:59.124Z,2.78
2022-08-02T11:47:03.950Z,2.70
2022-08-02T11:52:10.918Z,3.05
2022-08-02T11:57:19.731Z,3.00
2022-08-02T12:02:26.734Z,2.90
2022-08-02T12:07:34.766Z,2.83
2022-08-02T12:12:49.336Z,3.05
2022-08-02T12:18:10.878Z,2.97
2022-08-02T12:23:14.542Z,2.75
2022-08-02T12:28:20.481Z,2.97
2022-08-02T12:33:26.762Z,2.90
2022-08-02T12:38:29.744Z,2.50
2022-08-02T12:43:32.903Z,3.08
2022-08-02T12:48:48.149Z,2.70
2022-08-02T12:54:14.030Z,2.75
2022-08-02T12:59:38.588Z,2.45
2022-08-02T13:04:49.793Z,2.53
2022-08-02T13:10:02.600Z,3.00
2022-08-02T13:15:12.677Z,2.50
2022-08-02T13:20:31.929Z,2.58
2022-08-02T13:25:35.055Z,2.17
2022-08-02T13:30:38.481Z,2.30
2022-08-02T13:35:42.909Z,1.83
2022-08-02T13:41:04.561Z,2.47
2022-08-02T13:46:08.152Z,2.20
2022-08-02T13:51:14.914Z,2.30
2022-08-02T13:56:18.095Z,2.15
2022-08-02T14:01:21.158Z,2.13
2022-08-02T14:06:25.640Z,2.08
2022-08-02T14:11:30.946Z,2.40
2022-08-02T14:16:33.978Z,2.42
2022-08-02T14:21:47.029Z,2.30
2022-08-02T14:26:51.916Z,2.25
2022-08-02T14:31:54.961Z,2.72
2022-08-02T14:36:59.397Z,2.50
2022-08-02T14:42:02.551Z,2.67
2022-08-02T14:47:06.901Z,2.40
2022-08-02T14:52:13.210Z,2.35
2022-08-02T14:57:16.610Z,2.50
2022-08-02T15:02:19.619Z,2.33
2022-08-02T15:07:24.048Z,2.25
2022-08-02T15:12:27.011Z,2.22
2022-08-02T15:17:30.095Z,2.30
2022-08-02T15:22:34.633Z,2.00
2022-08-02T15:27:37.758Z,2.40
2022-08-02T15:32:52.427Z,2.30
2022-08-02T15:37:57.902Z,2.70
2022-08-02T15:43:00.908Z,2.50
2022-08-02T15:48:05.003Z,2.42
2022-08-02T15:53:09.373Z,2.00
2022-08-02T15:58:17.046Z,2.88
2022-08-02T16:03:21.053Z,2.00
2022-08-02T16:08:25.427Z,2.20
2022-08-02T16:13:53.493Z,2.25
2022-08-02T16:18:57.597Z,2.90
2022-08-02T16:24:03.413Z,2.38
2022-08-02T16:29:06.560Z,2.13
2022-08-02T16:34:09.926Z,2.53
2022-08-02T16:39:14.489Z,2.50
2022-08-02T16:44:17.578Z,2.35
2022-08-02T16:50:03.969Z,2.40
2022-08-02T16:54:45.023Z,2.35
2022-08-02T16:59:59.604Z,3.00
2022-08-02T17:05:02.833Z,2.40
2022-08-02T17:10:09.756Z,2.67
2022-08-02T17:20:36.354Z,2.13
2022-08-02T17:25:42.034Z,2.55
2022-08-02T17:30:45.543Z,2.55
2022-08-02T17:35:52.417Z,2.20
2022-08-02T17:40:57.658Z,2.50
2022-08-02T17:46:02.459Z,2.60
2022-08-02T17:51:05.770Z,2.40
2022-08-02T17:56:10.448Z,2.83
2022-08-02T18:01:23.859Z,2.40
2022-08-02T18:06:27.454Z,2.65
2022-08-02T18:11:51.730Z,2.70
2022-08-02T18:16:54.932Z,2.72
2022-08-02T18:21:57.979Z,4.45
2022-08-02T18:27:02.441Z,4.18
2022-08-02T18:32:11.801Z,2.25
2022-08-02T18:37:43.796Z,2.40
2022-08-02T18:42:52.074Z,2.70
2022-08-02T18:47:55.331Z,2.63
2022-08-02T18:52:59.712Z,2.60
2022-08-02T18:58:19.825Z,2.90
2022-08-02T19:03:23.964Z,7.47
2022-08-02T19:08:26.948Z,2.97
2022-08-02T19:13:31.489Z,3.45
2022-08-02T19:18:35.069Z,3.03
2022-08-02T19:23:54.621Z,3.00
2022-08-02T19:29:00.330Z,2.78
2022-08-02T19:34:12.173Z,3.20
2022-08-02T19:39:16.823Z,3.75
2022-08-02T19:44:29.318Z,4.60
2022-08-02T19:49:40.086Z,2.88
2022-08-02T19:54:55.874Z,3.03
2022-08-02T20:00:01.132Z,3.00
2022-08-02T20:05:16.074Z,3.70
2022-08-02T20:10:24.844Z,4.70
2022-08-02T20:15:56.052Z,3.13
2022-08-02T20:20:53.568Z,2.92
2022-08-02T20:25:56.614Z,2.92
2022-08-02T20:31:07.252Z,3.42
2022-08-02T20:36:12.144Z,3.00
2022-08-02T20:41:21.739Z,3.33
2022-08-02T20:46:26.540Z,4.13
2022-08-02T20:51:33.767Z,3.40
2022-08-02T20:56:37.543Z,3.65
2022-08-02T21:01:57.000Z,3.38
2022-08-02T21:07:00.654Z,3.35
2022-08-02T21:12:03.679Z,3.70
2022-08-02T21:17:11.209Z,3.60
2022-08-02T21:22:27.729Z,3.70
2022-08-02T21:27:53.241Z,3.42
2022-08-02T21:32:56.940Z,3.65
2022-08-02T21:38:00.028Z,4.18
2022-08-02T21:43:02.997Z,3.72
2022-08-02T21:48:13.362Z,3.97
2022-08-02T21:53:29.214Z,3.88
2022-08-02T21:58:39.611Z,4.20
2022-08-02T22:09:17.668Z,4.82
2022-08-02T22:14:23.507Z,4.25
2022-08-02T22:19:28.069Z,4.60
2022-08-02T22:24:31.593Z,3.70
2022-08-02T22:29:34.567Z,4.23
2022-08-02T22:34:52.303Z,4.30
2022-08-02T22:40:08.596Z,4.47
2022-08-02T22:45:12.701Z,4.40
2022-08-02T22:50:17.104Z,4.43
2022-08-02T22:55:21.457Z,4.50
2022-08-02T22:58:48.967Z,2.38
2022-08-02T22:59:12.505Z,3.95
2022-08-02T23:00:26.833Z,4.30
2022-08-02T23:05:31.589Z,4.40
2022-08-02T23:10:34.813Z,3.67
2022-08-02T23:15:53.556Z,4.50
2022-08-02T23:20:58.708Z,4.47
2022-08-02T23:26:01.695Z,4.43
2022-08-02T23:31:28.917Z,4.30
2022-08-02T23:36:33.921Z,4.23
2022-08-02T23:41:36.932Z,4.70
2022-08-02T23:46:42.154Z,5.20
2022-08-02T23:51:46.898Z,4.70
2022-08-02T23:56:49.992Z,4.90
